Pasman, Argentina
Current Conditions -  °F | °C
As of 6:00 AM on Friday 28 Nov 2014 (Local Time) from SAZM Reporting Station
Broken Clouds Broken Clouds  
Wind Chill: 57°   Ceiling: 10000
Heat Index: 57°   Visibility: 6mi
Dew Point: 55°   Wind: 3mph
Humidity: 94%   Direction: 340°NNW
Pressure: 30"   Gusts: NA
Location:  37.23°S, 62.17°W
Report Text: SAZM 280900Z 34003KT 9000 SCT025 BKN100BKN200 14/13 Q1016
Loading
Personal Weather Stations






























Interactive Weather Map New forecast layout! Learn more

10-Day Weather Forecast

Advertisements
Track Severe Weather on mobile